Algowood — VCTD — position and weather

sailwx.info

Track history (hours):
 
Tides and Currents Weather Stations Pressure Air Temp Water Temp Dewpoint Dewpoint Depression Visibility Wind Speed Wind Dir Waves Ship Positions

Algowood

Last reported at 2015-Apr-20 03:17 UTC. Time now 2015-Apr-21 09:47 UTC.
Position N 46°22' W 084°12'.

Length 223 m; draft 8.1 m.

Type: Cargo ship. MMSI: 316001802.

Date/timePositionNaut miles runAvg speedWind from/ knotsBaromVisibWave heightAir tempDewpointWater temp
2015-Apr-20 03:17N 46°22' W 084°12'13 7.8
2015-Apr-20 01:33N 46°10' W 084°04'10 9.8
2015-Apr-20 00:33N 46°02' W 083°54'265 6.9
2015-Apr-18 10:11N 42°24' W 080°26'710.6
2015-Apr-18 09:33N 42°26' W 080°17'1110.6
2015-Apr-18 08:33N 42°30' W 080°04'9 9.0
2015-Apr-18 07:33N 42°39' W 080°04'8 7.9
2015-Apr-18 06:33N 42°47' W 080°05'0 0.1
2015-Apr-18 05:33N 42°47' W 080°05'0 0.0
2015-Apr-18 04:33N 42°47' W 080°05'0 0.0
2015-Apr-18 03:33N 42°47' W 080°05'0 0.0
2015-Apr-18 02:33N 42°47' W 080°05'0 0.0
2015-Apr-18 01:33N 42°47' W 080°05'0 0.0
2015-Apr-18 00:33N 42°47' W 080°05'0 0.0
2015-Apr-17 23:33N 42°47' W 080°05'0 0.0
2015-Apr-17 22:33N 42°47' W 080°05'2 2.4
2015-Apr-17 21:33N 42°45' W 080°05'1010.2
2015-Apr-17 20:33N 42°35' W 080°01'9 9.4
2015-Apr-17 19:33N 42°27' W 080°07'244 6.7
2015-Apr-16 07:11N 45°41' W 083°32'711.3
2015-Apr-16 06:33N 45°46' W 083°39'1111.4
2015-Apr-16 05:33N 45°54' W 083°50'10 9.9
2015-Apr-16 04:33N 46°03' W 083°57'9 8.9
2015-Apr-16 03:33N 46°10' W 084°05'9 8.1
2015-Apr-16 02:26N 46°17' W 084°13'7 7.7
2015-Apr-16 01:33N 46°24' W 084°14'302 8.4
2015-Apr-14 13:33N 46°55' W 091°32'1211.6
2015-Apr-14 12:33N 46°49' W 091°46'1111.4
2015-Apr-14 11:33N 46°43' W 092°00'1 0.9
2015-Apr-14 10:33N 46°42' W 092°01'0 0.0
2015-Apr-14 09:33N 46°42' W 092°01'0 0.0
2015-Apr-14 08:33N 46°42' W 092°01'0 0.0
2015-Apr-14 07:28N 46°42' W 092°01'0 0.0
2015-Apr-14 06:33N 46°42' W 092°01'0 0.0
2015-Apr-14 05:33N 46°42' W 092°01'0 0.0
2015-Apr-14 04:33N 46°42' W 092°01'0 0.0
2015-Apr-14 03:32N 46°42' W 092°01'0 0.0
2015-Apr-14 02:33N 46°42' W 092°01'0 0.0
2015-Apr-14 01:33N 46°42' W 092°01'0 0.0
2015-Apr-14 00:33N 46°42' W 092°01'0 0.0
2015-Apr-13 23:33N 46°42' W 092°01'0 0.0
2015-Apr-13 22:32N 46°42' W 092°01'0 0.0
2015-Apr-13 21:33N 46°42' W 092°01'0 0.0
2015-Apr-13 20:33N 46°42' W 092°01'0 0.0
2015-Apr-13 19:33N 46°42' W 092°01'0 0.0
2015-Apr-13 18:33N 46°42' W 092°01'0 0.0
2015-Apr-13 17:34N 46°42' W 092°01'0 0.0
2015-Apr-13 16:33N 46°42' W 092°01'0 0.4
2015-Apr-13 15:33N 46°42' W 092°01'10 9.6
2015-Apr-13 14:33N 46°49' W 091°50'1 0.8
2015-Apr-13 13:33N 46°49' W 091°51'1 0.7
2015-Apr-13 12:33N 46°49' W 091°52'9 9.3
2015-Apr-13 11:33N 46°47' W 092°06'0 0.5
2015-Apr-13 10:33N 46°46' W 092°06'0 0.0
2015-Apr-13 09:32N 46°46' W 092°06'0 0.0
2015-Apr-13 08:32N 46°46' W 092°06'0 0.0
2015-Apr-13 07:33N 46°46' W 092°06'0 0.0
2015-Apr-13 06:33N 46°46' W 092°06'0 0.0
2015-Apr-13 05:33N 46°46' W 092°06'0 0.0
2015-Apr-13 04:33N 46°46' W 092°06'0 0.0
2015-Apr-13 03:33N 46°46' W 092°06'0 0.0
2015-Apr-13 02:33N 46°46' W 092°06'0 0.0
2015-Apr-13 01:33N 46°46' W 092°06'0 0.0
2015-Apr-13 00:33N 46°46' W 092°06'3 2.9
2015-Apr-12 23:33N 46°48' W 092°03'296 8.0
2015-Apr-11 10:33N 46°42' W 084°51'  
Track history (hours):
 
Tides and Currents Weather Stations Pressure Air Temp Water Temp Dewpoint Dewpoint Depression Visibility Wind Speed Wind Dir Waves Ship Positions

Algowood

Last reported at 2015-Apr-20 03:17 UTC. Time now 2015-Apr-21 09:47 UTC.
Position N 46°22' W 084°12'.

Length 223 m; draft 8.1 m.

Type: Cargo ship. MMSI: 316001802.

Date/timePositionNaut miles runAvg speedWind from/ knotsBaromVisibWave heightAir tempDewpointWater temp
2015-Apr-20 03:17N 46°22' W 084°12'13 7.8
2015-Apr-20 01:33N 46°10' W 084°04'10 9.8
2015-Apr-20 00:33N 46°02' W 083°54'265 6.9
2015-Apr-18 10:11N 42°24' W 080°26'710.6
2015-Apr-18 09:33N 42°26' W 080°17'1110.6
2015-Apr-18 08:33N 42°30' W 080°04'9 9.0
2015-Apr-18 07:33N 42°39' W 080°04'8 7.9
2015-Apr-18 06:33N 42°47' W 080°05'0 0.1
2015-Apr-18 05:33N 42°47' W 080°05'0 0.0
2015-Apr-18 04:33N 42°47' W 080°05'0 0.0
2015-Apr-18 03:33N 42°47' W 080°05'0 0.0
2015-Apr-18 02:33N 42°47' W 080°05'0 0.0
2015-Apr-18 01:33N 42°47' W 080°05'0 0.0
2015-Apr-18 00:33N 42°47' W 080°05'0 0.0
2015-Apr-17 23:33N 42°47' W 080°05'0 0.0
2015-Apr-17 22:33N 42°47' W 080°05'2 2.4
2015-Apr-17 21:33N 42°45' W 080°05'1010.2
2015-Apr-17 20:33N 42°35' W 080°01'9 9.4
2015-Apr-17 19:33N 42°27' W 080°07'244 6.7
2015-Apr-16 07:11N 45°41' W 083°32'711.3
2015-Apr-16 06:33N 45°46' W 083°39'1111.4
2015-Apr-16 05:33N 45°54' W 083°50'10 9.9
2015-Apr-16 04:33N 46°03' W 083°57'9 8.9
2015-Apr-16 03:33N 46°10' W 084°05'9 8.1
2015-Apr-16 02:26N 46°17' W 084°13'7 7.7
2015-Apr-16 01:33N 46°24' W 084°14'302 8.4
2015-Apr-14 13:33N 46°55' W 091°32'1211.6
2015-Apr-14 12:33N 46°49' W 091°46'1111.4
2015-Apr-14 11:33N 46°43' W 092°00'1 0.9
2015-Apr-14 10:33N 46°42' W 092°01'0 0.0
2015-Apr-14 09:33N 46°42' W 092°01'0 0.0
2015-Apr-14 08:33N 46°42' W 092°01'0 0.0
2015-Apr-14 07:28N 46°42' W 092°01'0 0.0
2015-Apr-14 06:33N 46°42' W 092°01'0 0.0
2015-Apr-14 05:33N 46°42' W 092°01'0 0.0
2015-Apr-14 04:33N 46°42' W 092°01'0 0.0
2015-Apr-14 03:32N 46°42' W 092°01'0 0.0
2015-Apr-14 02:33N 46°42' W 092°01'0 0.0
2015-Apr-14 01:33N 46°42' W 092°01'0 0.0
2015-Apr-14 00:33N 46°42' W 092°01'0 0.0
2015-Apr-13 23:33N 46°42' W 092°01'0 0.0
2015-Apr-13 22:32N 46°42' W 092°01'0 0.0
2015-Apr-13 21:33N 46°42' W 092°01'0 0.0
2015-Apr-13 20:33N 46°42' W 092°01'0 0.0
2015-Apr-13 19:33N 46°42' W 092°01'0 0.0
2015-Apr-13 18:33N 46°42' W 092°01'0 0.0
2015-Apr-13 17:34N 46°42' W 092°01'0 0.0
2015-Apr-13 16:33N 46°42' W 092°01'0 0.4
2015-Apr-13 15:33N 46°42' W 092°01'10 9.6
2015-Apr-13 14:33N 46°49' W 091°50'1 0.8
2015-Apr-13 13:33N 46°49' W 091°51'1 0.7
2015-Apr-13 12:33N 46°49' W 091°52'9 9.3
2015-Apr-13 11:33N 46°47' W 092°06'0 0.5
2015-Apr-13 10:33N 46°46' W 092°06'0 0.0
2015-Apr-13 09:32N 46°46' W 092°06'0 0.0
2015-Apr-13 08:32N 46°46' W 092°06'0 0.0
2015-Apr-13 07:33N 46°46' W 092°06'0 0.0
2015-Apr-13 06:33N 46°46' W 092°06'0 0.0
2015-Apr-13 05:33N 46°46' W 092°06'0 0.0
2015-Apr-13 04:33N 46°46' W 092°06'0 0.0
2015-Apr-13 03:33N 46°46' W 092°06'0 0.0
2015-Apr-13 02:33N 46°46' W 092°06'0 0.0
2015-Apr-13 01:33N 46°46' W 092°06'0 0.0
2015-Apr-13 00:33N 46°46' W 092°06'3 2.9
2015-Apr-12 23:33N 46°48' W 092°03'296 8.0
2015-Apr-11 10:33N 46°42' W 084°51'  

Dump ship's entire track history